Time;durP1;ratioP1;P1;durP2;ratioP2;P2;SDS_P1;SDS_P2;PMS_P1;PMS_P2;Temp;Humidity;BMP_temperature;BMP_pressure;BME280_temperature;BME280_humidity;BME280_pressure;Samples;Min_cycle;Max_cycle;Signal;HPM_P1;HPM_P2
2021/12/08 00:00:30;;;;;;;37.70;15.10;;;;;;;-7.43;92.10;99931.58;100135;1343;73308;-69
2021/12/08 00:03:20;;;;;;;52.60;21.10;;;;;;;-7.49;92.40;99933.50;100314;1342;68583;-67
2021/12/08 00:06:10;;;;;;;42.20;16.30;;;;;;;-7.54;92.98;99928.88;99498;1343;1002949;-67
2021/12/08 00:09:06;;;;;;;51.10;20.10;;;;;;;-7.59;93.52;99932.70;99940;1339;60112;-68
2021/12/08 00:15:02;;;;;;;49.60;19.40;;;;;;;-7.61;93.76;99947.54;100120;1340;71942;-68
2021/12/08 00:17:50;;;;;;;54.50;20.40;;;;;;;-7.60;93.72;99956.66;99986;1342;68627;-68
2021/12/08 00:20:41;;;;;;;53.10;21.80;;;;;;;-7.53;93.68;99959.20;100014;1343;72833;-67
2021/12/08 00:23:30;;;;;;;52.50;18.80;;;;;;;-7.45;93.71;99957.61;100414;1336;59815;-66
2021/12/08 00:26:18;;;;;;;55.50;21.30;;;;;;;-7.40;93.39;99953.63;99534;1342;1003429;-68
2021/12/08 00:29:06;;;;;;;50.70;17.40;;;;;;;-7.37;93.52;99949.29;100027;1343;73899;-70
2021/12/08 00:31:56;;;;;;;50.00;18.00;;;;;;;-7.32;93.28;99942.52;100250;1342;65512;-70
2021/12/08 00:34:45;;;;;;;51.10;18.50;;;;;;;-7.26;93.00;99927.66;100091;1340;71337;-70
2021/12/08 00:37:33;;;;;;;51.90;20.80;;;;;;;-7.22;92.81;99921.77;100167;1340;59781;-69
2021/12/08 00:40:26;;;;;;;55.50;20.80;;;;;;;-7.20;92.46;99916.75;100022;1340;60750;-69
2021/12/08 00:43:15;;;;;;;52.70;21.00;;;;;;;-7.22;91.93;99909.86;99911;1343;73916;-70
2021/12/08 00:46:04;;;;;;;55.90;20.40;;;;;;;-7.26;91.76;99910.95;98526;1343;1003659;-69
2021/12/08 00:48:52;;;;;;;51.80;19.20;;;;;;;-7.28;91.93;99911.98;99414;1337;1004376;-70
2021/12/08 00:51:40;;;;;;;53.00;19.20;;;;;;;-7.29;91.84;99913.02;100213;1342;59739;-67
2021/12/08 00:54:28;;;;;;;57.50;20.20;;;;;;;-7.30;91.61;99903.02;100177;1337;59626;-67
2021/12/08 00:57:17;;;;;;;56.20;22.10;;;;;;;-7.32;91.78;99890.80;99996;1340;73397;-68
2021/12/08 01:00:18;;;;;;;49.70;19.40;;;;;;;-7.35;91.67;99892.05;100107;1339;66822;-67
2021/12/08 01:03:09;;;;;;;52.70;19.50;;;;;;;-7.44;92.09;99892.80;99876;1344;73502;-67
2021/12/08 01:05:57;;;;;;;52.60;20.90;;;;;;;-7.55;92.41;99898.39;100156;1336;59821;-67
2021/12/08 01:08:46;;;;;;;41.40;15.00;;;;;;;-7.63;92.29;99904.63;100181;1343;60371;-66
2021/12/08 01:11:34;;;;;;;37.30;12.60;;;;;;;-7.71;92.07;99910.53;100166;1340;72525;-68
2021/12/08 01:14:23;;;;;;;57.20;19.80;;;;;;;-7.85;92.26;99910.62;100222;1337;68168;-67
2021/12/08 01:17:11;;;;;;;48.20;17.70;;;;;;;-7.99;92.61;99915.49;99112;1340;1003694;-68
2021/12/08 01:20:00;;;;;;;61.20;22.80;;;;;;;-8.12;93.00;99912.96;100020;1340;59769;-68
2021/12/08 01:22:49;;;;;;;57.20;21.30;;;;;;;-8.24;93.09;99917.14;100016;1336;61053;-67
2021/12/08 01:25:38;;;;;;;56.20;21.50;;;;;;;-8.35;93.10;99920.27;100069;1336;73338;-68
2021/12/08 01:28:26;;;;;;;62.50;20.80;;;;;;;-8.47;93.88;99919.82;100272;1343;65942;-67
2021/12/08 01:31:16;;;;;;;53.60;19.20;;;;;;;-8.55;93.85;99919.85;99347;1343;1003481;-67
2021/12/08 01:34:04;;;;;;;41.50;15.30;;;;;;;-8.63;93.84;99915.91;99194;1336;1003434;-68
2021/12/08 01:36:53;;;;;;;57.80;20.20;;;;;;;-8.74;94.37;99908.17;100044;1336;59770;-68
2021/12/08 01:39:41;;;;;;;48.50;18.20;;;;;;;-8.78;94.22;99909.22;100288;1336;72546;-68
2021/12/08 01:42:35;;;;;;;48.30;17.90;;;;;;;-8.84;93.63;99905.61;100108;1343;70070;-67
2021/12/08 01:48:36;;;;;;;47.20;18.10;;;;;;;-8.90;93.55;99910.27;100043;1336;59770;-68
2021/12/08 01:51:25;;;;;;;59.20;20.00;;;;;;;-8.92;93.15;99904.93;100264;1340;61884;-67
2021/12/08 01:54:13;;;;;;;50.00;19.30;;;;;;;-8.94;93.33;99897.38;98438;1337;1003948;-65
2021/12/08 01:57:02;;;;;;;46.60;18.80;;;;;;;-9.03;93.34;99893.95;100213;1337;68591;-66
2021/12/08 01:59:50;;;;;;;40.70;14.40;;;;;;;-9.10;94.07;99884.14;99823;1337;73668;-66
2021/12/08 02:02:39;;;;;;;55.30;18.60;;;;;;;-9.13;94.36;99874.68;100142;1337;59802;-66
2021/12/08 02:05:27;;;;;;;47.20;16.70;;;;;;;-9.13;94.82;99866.45;100141;1337;59582;-69
2021/12/08 02:08:16;;;;;;;46.40;17.00;;;;;;;-9.14;95.02;99864.20;100133;1337;74010;-68
2021/12/08 02:11:06;;;;;;;49.30;18.00;;;;;;;-9.06;94.85;99871.94;100122;1337;68799;-66
2021/12/08 02:14:00;;;;;;;46.50;17.00;;;;;;;-9.04;95.25;99868.33;100330;1340;71063;-67
2021/12/08 02:16:52;;;;;;;56.50;20.40;;;;;;;-8.99;95.37;99867.11;99893;1339;60211;-68
2021/12/08 02:19:41;;;;;;;44.80;16.10;;;;;;;-8.95;95.45;99855.77;99833;1340;59711;-66
2021/12/08 02:22:29;;;;;;;31.30;10.60;;;;;;;-8.91;95.66;99862.81;100147;1336;72178;-66
2021/12/08 02:25:22;;;;;;;52.60;18.30;;;;;;;-8.90;95.32;99852.14;99852;1336;68839;-67
2021/12/08 02:28:11;;;;;;;53.80;17.80;;;;;;;-8.84;95.87;99841.98;100010;1337;75331;-65
2021/12/08 02:31:04;;;;;;;46.60;16.80;;;;;;;-8.78;95.67;99842.65;100020;1336;59716;-67
2021/12/08 02:49:44;;;;;;;45.80;16.40;;;;;;;-8.51;95.58;99884.39;100329;1343;60408;-66
2021/12/08 02:52:32;;;;;;;43.20;14.70;;;;;;;-8.47;95.26;99895.22;100028;1343;71727;-65
2021/12/08 02:55:21;;;;;;;47.60;16.90;;;;;;;-8.44;95.05;99893.13;100115;1337;68944;-64
2021/12/08 02:58:10;;;;;;;59.00;20.40;;;;;;;-8.40;94.93;99895.84;99219;1343;1003462;-67
2021/12/08 03:01:04;;;;;;;49.70;17.10;;;;;;;-8.36;95.38;99898.59;99840;1344;59727;-66
2021/12/08 03:03:53;;;;;;;51.60;17.60;;;;;;;-8.34;95.44;99897.89;99382;1336;1003011;-66
2021/12/08 03:06:41;;;;;;;47.80;17.80;;;;;;;-8.27;95.37;99894.42;99224;1343;1003486;-66
2021/12/08 03:09:29;;;;;;;51.80;17.50;;;;;;;-8.22;95.35;99898.71;100024;1336;69099;-67
2021/12/08 03:12:28;;;;;;;51.70;18.70;;;;;;;-8.18;94.69;99898.36;99863;1343;73439;-65
2021/12/08 03:15:18;;;;;;;52.50;19.80;;;;;;;-8.14;94.91;99904.89;99876;1343;59799;-65
2021/12/08 03:18:07;;;;;;;47.30;16.40;;;;;;;-8.11;95.10;99915.55;99870;1340;59700;-65
2021/12/08 03:20:55;;;;;;;20.40;8.60;;;;;;;-8.10;94.39;99920.52;99873;1343;75044;-67
2021/12/08 03:23:55;;;;;;;45.60;17.20;;;;;;;-8.10;95.30;99921.05;99981;1336;68225;-65
2021/12/08 03:26:50;;;;;;;49.80;17.80;;;;;;;-8.06;94.87;99922.75;100072;1343;73472;-68
2021/12/08 03:30:11;;;;;;;42.70;15.00;;;;;;;-8.01;94.79;99916.71;99956;1336;59802;-66
2021/12/08 03:33:00;;;;;;;46.10;15.60;;;;;;;-7.96;94.58;99905.50;99997;1340;59673;-66
2021/12/08 03:35:50;;;;;;;46.20;17.50;;;;;;;-7.93;94.23;99894.96;99967;1340;73201;-66
2021/12/08 03:38:39;;;;;;;43.20;15.50;;;;;;;-7.81;94.28;99893.53;100024;1336;67990;-67
2021/12/08 03:41:33;;;;;;;46.10;17.30;;;;;;;-7.76;93.86;99887.48;100252;1336;72332;-65
2021/12/08 03:44:21;;;;;;;45.50;16.20;;;;;;;-7.71;93.47;99885.38;99943;1337;59728;-66
2021/12/08 03:47:15;;;;;;;44.10;15.90;;;;;;;-7.64;93.22;99882.23;99998;1340;60765;-66
2021/12/08 03:50:22;;;;;;;45.50;17.00;;;;;;;-7.59;92.98;99885.82;99991;1337;74986;-66
2021/12/08 03:53:13;;;;;;;25.10;8.60;;;;;;;-7.56;92.86;99880.80;100191;1336;67887;-67
2021/12/08 03:56:01;;;;;;;46.30;16.00;;;;;;;-7.54;92.74;99880.10;99862;1337;72982;-66
2021/12/08 03:58:49;;;;;;;37.40;12.90;;;;;;;-7.51;92.63;99880.60;99339;1340;1003620;-67
2021/12/08 04:01:38;;;;;;;43.10;15.70;;;;;;;-7.49;92.77;99877.14;100028;1339;60727;-67
2021/12/08 04:04:28;;;;;;;39.50;14.30;;;;;;;-7.44;93.00;99881.59;99937;1340;74226;-66
2021/12/08 04:07:19;;;;;;;43.30;15.00;;;;;;;-7.41;92.48;99875.52;99357;1339;1003901;-69
2021/12/08 04:10:15;;;;;;;40.40;14.80;;;;;;;-7.37;92.41;99876.19;100275;1337;71683;-67
2021/12/08 04:13:04;;;;;;;37.20;12.40;;;;;;;-7.36;92.13;99871.52;100461;1337;60061;-68
2021/12/08 04:15:53;;;;;;;38.80;14.30;;;;;;;-7.35;91.99;99869.11;99566;1342;1003885;-69
2021/12/08 04:18:42;;;;;;;40.40;14.70;;;;;;;-7.34;91.99;99861.86;100539;1337;74698;-68
2021/12/08 04:21:31;;;;;;;34.20;11.90;;;;;;;-7.33;92.20;99865.80;100434;1342;69605;-68
2021/12/08 04:24:20;;;;;;;38.60;14.50;;;;;;;-7.35;91.76;99866.87;100076;1340;72981;-68
2021/12/08 04:27:17;;;;;;;34.00;11.50;;;;;;;-7.38;91.65;99864.64;100377;1337;60490;-66
2021/12/08 04:30:22;;;;;;;28.40;11.20;;;;;;;-7.37;91.63;99863.09;99735;1340;1003930;-69
2021/12/08 04:33:12;;;;;;;35.30;14.10;;;;;;;-7.39;91.62;99858.63;99943;1340;1003682;-67
2021/12/08 04:36:03;;;;;;;32.90;13.30;;;;;;;-7.38;91.08;99861.02;100722;1340;68592;-67
2021/12/08 04:38:56;;;;;;;38.60;14.30;;;;;;;-7.38;91.17;99858.77;100407;1340;74630;-68
2021/12/08 04:41:50;;;;;;;34.80;12.00;;;;;;;-7.39;91.19;99862.59;100310;1337;59824;-70
2021/12/08 04:44:50;;;;;;;40.20;13.40;;;;;;;-7.40;91.27;99862.60;100070;1336;60621;-66
2021/12/08 04:47:54;;;;;;;37.30;13.80;;;;;;;-7.38;91.43;99865.68;99896;1340;74292;-68
2021/12/08 05:04:10;;;;;;;33.80;13.50;;;;;;;-7.66;91.80;99841.05;99953;1342;73020;-68
2021/12/08 05:10:33;;;;;;;35.60;13.10;;;;;;;-7.67;92.32;99842.44;99712;1340;1003801;-68
2021/12/08 05:13:21;;;;;;;27.40;11.00;;;;;;;-7.71;92.15;99839.73;99347;1337;1002978;-69
2021/12/08 05:16:11;;;;;;;37.70;13.80;;;;;;;-7.75;91.97;99836.98;99228;1342;1015192;-69
2021/12/08 05:19:09;;;;;;;27.40;9.90;;;;;;;-7.78;92.21;99841.48;99568;1345;73988;-69
2021/12/08 05:22:24;;;;;;;27.30;9.60;;;;;;;-7.82;92.19;99836.35;99570;1339;68376;-71
2021/12/08 05:25:18;;;;;;;33.80;11.90;;;;;;;-7.83;92.21;99833.42;98795;1339;1003609;-69
2021/12/08 05:28:11;;;;;;;23.40;8.50;;;;;;;-7.85;92.52;99834.80;99525;1339;59892;-70
2021/12/08 05:31:18;;;;;;;35.80;13.60;;;;;;;-7.88;92.48;99832.25;99491;1346;61504;-72
2021/12/08 05:34:08;;;;;;;36.00;13.40;;;;;;;-7.90;92.62;99832.60;99479;1340;239069;-70
2021/12/08 05:36:58;;;;;;;35.90;14.90;;;;;;;-7.96;92.61;99835.23;99548;1343;69740;-68
2021/12/08 05:39:46;;;;;;;35.80;13.30;;;;;;;-7.96;93.11;99831.10;99471;1339;73720;-70
2021/12/08 05:42:44;;;;;;;30.60;11.60;;;;;;;-8.00;93.17;99834.73;99547;1342;59759;-68
2021/12/08 05:45:33;;;;;;;38.90;14.30;;;;;;;-8.06;93.29;99825.13;99580;1340;60380;-66
2021/12/08 05:48:30;;;;;;;36.10;14.30;;;;;;;-8.09;93.42;99819.63;100025;1339;71815;-69
2021/12/08 05:51:31;;;;;;;34.30;11.70;;;;;;;-8.08;93.71;99811.19;100044;1336;65943;-69
2021/12/08 05:54:29;;;;;;;32.00;11.40;;;;;;;-8.08;94.00;99804.30;99755;1339;74533;-70
2021/12/08 05:57:30;;;;;;;28.90;12.00;;;;;;;-8.11;94.09;99804.14;100187;1336;59825;-70
2021/12/08 06:00:42;;;;;;;30.90;11.90;;;;;;;-8.12;94.25;99803.29;100314;1337;59647;-71
2021/12/08 06:03:34;;;;;;;32.00;11.80;;;;;;;-8.11;93.85;99804.13;99586;1336;1004008;-71
2021/12/08 06:06:26;;;;;;;34.70;13.80;;;;;;;-8.07;94.11;99805.14;100248;1338;67119;-69
2021/12/08 06:09:19;;;;;;;28.50;10.70;;;;;;;-8.07;94.14;99808.77;100227;1336;72208;-70
2021/12/08 06:12:10;;;;;;;34.80;13.00;;;;;;;-8.08;94.17;99813.77;100376;1337;60475;-68
2021/12/08 06:14:58;;;;;;;35.80;15.20;;;;;;;-8.11;94.11;99817.74;99454;1337;1003888;-68
2021/12/08 06:17:47;;;;;;;28.80;11.30;;;;;;;-8.14;93.95;99818.63;100219;1343;72832;-71
2021/12/08 06:20:37;;;;;;;34.50;12.60;;;;;;;-8.16;94.17;99820.20;99174;1339;1003502;-69
2021/12/08 06:23:26;;;;;;;34.90;12.60;;;;;;;-8.18;93.40;99822.95;99413;1340;1003182;-69
2021/12/08 06:26:19;;;;;;;34.00;13.30;;;;;;;-8.16;93.74;99819.49;99854;1336;59832;-68
2021/12/08 06:29:11;;;;;;;30.70;11.40;;;;;;;-8.15;93.73;99820.19;99864;1337;60694;-67
2021/12/08 06:32:03;;;;;;;33.10;13.00;;;;;;;-8.24;93.45;99826.59;99320;1337;1003532;-70
2021/12/08 06:34:57;;;;;;;33.70;13.00;;;;;;;-8.24;93.23;99827.63;99153;1337;1003206;-70
2021/12/08 06:37:46;;;;;;;29.30;10.70;;;;;;;-8.22;93.48;99831.75;99996;1336;71896;-71
2021/12/08 06:41:00;;;;;;;30.50;12.50;;;;;;;-8.22;93.53;99838.98;100040;1340;60498;-66
2021/12/08 06:44:01;;;;;;;30.10;11.40;;;;;;;-8.32;93.23;99843.84;100210;1336;60423;-69
2021/12/08 06:46:51;;;;;;;32.00;12.70;;;;;;;-8.35;93.29;99841.61;99822;1337;72405;-71
2021/12/08 06:49:41;;;;;;;32.20;12.10;;;;;;;-8.38;93.70;99842.66;100096;1335;68489;-69
2021/12/08 06:52:36;;;;;;;28.00;10.80;;;;;;;-8.45;93.84;99839.95;100062;1336;71927;-70
2021/12/08 06:55:43;;;;;;;29.90;11.20;;;;;;;-8.49;94.05;99843.94;100026;1336;60414;-71
2021/12/08 06:58:36;;;;;;;27.00;10.10;;;;;;;-8.56;94.46;99839.84;99914;1337;60369;-70
2021/12/08 07:02:36;;;;;;;27.30;10.90;;;;;;;-8.50;94.68;99847.90;100104;1340;71257;-68
2021/12/08 07:04:55;;;;;;;26.30;10.80;;;;;;;-8.51;94.18;99850.66;100022;1339;67198;-70
2021/12/08 07:07:45;;;;;;;28.30;11.00;;;;;;;-8.51;94.33;99853.59;99379;1339;1003917;-71
2021/12/08 07:10:42;;;;;;;29.80;11.80;;;;;;;-8.49;93.95;99853.58;100524;1336;59798;-70
2021/12/08 07:13:35;;;;;;;32.00;12.80;;;;;;;-8.52;94.45;99851.86;99856;1337;59738;-71
2021/12/08 07:16:47;;;;;;;30.40;11.80;;;;;;;-8.50;94.39;99853.41;100239;1344;74013;-70
2021/12/08 07:19:49;;;;;;;31.00;12.70;;;;;;;-8.46;94.28;99852.88;99964;1336;70048;-70
2021/12/08 07:22:38;;;;;;;26.40;10.10;;;;;;;-8.45;94.04;99844.27;99358;1336;1003703;-68
2021/12/08 07:25:32;;;;;;;28.30;11.60;;;;;;;-8.39;94.41;99846.80;100070;1343;59756;-68
2021/12/08 07:28:25;;;;;;;27.80;10.70;;;;;;;-8.40;93.89;99846.11;100213;1340;60990;-69
2021/12/08 07:31:28;;;;;;;27.70;10.20;;;;;;;-8.40;93.14;99840.09;99613;1339;74153;-66
2021/12/08 07:34:19;;;;;;;28.90;11.80;;;;;;;-8.36;93.46;99843.70;100103;1336;70264;-66
2021/12/08 07:37:18;;;;;;;25.70;10.70;;;;;;;-8.34;93.81;99841.61;99852;1340;71832;-68
2021/12/08 07:40:21;;;;;;;25.20;10.40;;;;;;;-8.35;93.57;99834.39;99730;1340;59750;-68
2021/12/08 07:43:17;;;;;;;20.80;7.80;;;;;;;-8.39;92.84;99832.69;100028;1337;59758;-68
2021/12/08 07:46:23;;;;;;;29.60;11.20;;;;;;;-8.36;93.60;99830.79;99709;1340;72533;-68
2021/12/08 07:49:24;;;;;;;21.20;7.60;;;;;;;-8.34;93.29;99833.88;100253;1338;65592;-67
2021/12/08 07:52:22;;;;;;;24.20;10.40;;;;;;;-8.34;93.37;99827.66;100021;1337;69984;-68
2021/12/08 07:55:25;;;;;;;24.60;10.50;;;;;;;-8.31;93.61;99822.49;99153;1336;1003681;-67
2021/12/08 07:58:16;;;;;;;21.80;9.10;;;;;;;-8.28;93.05;99822.83;100172;1336;59378;-68
2021/12/08 08:01:16;;;;;;;28.00;12.50;;;;;;;-8.28;93.27;99816.11;99272;1337;1003495;-70
2021/12/08 08:04:12;;;;;;;28.10;12.50;;;;;;;-8.21;93.66;99815.05;100099;1340;69787;-68
2021/12/08 08:07:00;;;;;;;23.10;8.70;;;;;;;-8.17;93.19;99815.20;100010;1340;71309;-66
2021/12/08 08:09:59;;;;;;;23.90;10.30;;;;;;;-8.19;92.78;99812.28;99995;1340;59635;-68
2021/12/08 08:12:51;;;;;;;25.60;10.30;;;;;;;-8.23;93.17;99813.66;99831;1337;59609;-67
2021/12/08 08:15:45;;;;;;;25.20;10.60;;;;;;;-8.25;92.86;99813.00;100216;1337;71428;-67
2021/12/08 08:18:39;;;;;;;29.20;12.50;;;;;;;-8.23;93.14;99812.46;100032;1336;65944;-68
2021/12/08 08:21:32;;;;;;;24.80;10.30;;;;;;;-8.19;93.08;99813.48;100187;1336;73368;-70
2021/12/08 08:24:21;;;;;;;26.80;10.60;;;;;;;-8.18;92.60;99809.86;99732;1343;60350;-67
2021/12/08 08:27:12;;;;;;;28.70;11.20;;;;;;;-8.16;92.61;99806.75;100026;1336;60367;-70
2021/12/08 08:30:08;;;;;;;26.10;10.00;;;;;;;-8.12;92.66;99801.22;99911;1336;73803;-67
2021/12/08 08:33:01;;;;;;;25.10;10.20;;;;;;;-8.07;92.91;99802.39;100024;1340;67788;-71
2021/12/08 08:35:55;;;;;;;27.70;11.70;;;;;;;-7.99;92.97;99806.30;99997;1337;74301;-70
2021/12/08 08:38:57;;;;;;;22.80;10.40;;;;;;;-7.98;92.00;99800.27;99929;1336;60938;-70
2021/12/08 08:41:55;;;;;;;27.40;12.60;;;;;;;-8.03;91.78;99799.10;100074;1337;60100;-72
2021/12/08 08:45:00;;;;;;;22.50;10.00;;;;;;;-8.10;91.88;99796.91;99346;1340;1003184;-67
2021/12/08 08:48:28;;;;;;;30.90;12.50;;;;;;;-8.13;91.89;99790.55;99891;1336;65407;-69
2021/12/08 08:51:35;;;;;;;28.50;12.40;;;;;;;-8.13;91.84;99795.55;100164;1336;73047;-70
2021/12/08 08:54:24;;;;;;;28.80;12.40;;;;;;;-8.27;91.80;99788.75;100163;1336;60054;-70
2021/12/08 08:57:23;;;;;;;30.10;13.00;;;;;;;-8.25;91.81;99788.55;100041;1339;59710;-72
2021/12/08 09:00:40;;;;;;;28.20;12.20;;;;;;;-8.21;91.88;99792.14;100009;1342;72123;-69
2021/12/08 09:03:34;;;;;;;21.30;7.80;;;;;;;-8.22;91.23;99789.74;100059;1337;68547;-67
2021/12/08 09:06:37;;;;;;;28.50;11.80;;;;;;;-8.22;90.78;99782.86;100034;1336;71494;-68
2021/12/08 09:09:30;;;;;;;28.70;11.60;;;;;;;-8.25;91.03;99779.26;99168;1336;1002974;-68
2021/12/08 09:12:33;;;;;;;27.30;12.30;;;;;;;-8.25;90.99;99778.58;100085;1342;59654;-69
2021/12/08 09:15:43;;;;;;;25.10;9.90;;;;;;;-8.30;90.43;99781.00;100167;1340;71865;-67
2021/12/08 09:18:49;;;;;;;29.70;10.60;;;;;;;-8.32;90.60;99780.84;99963;1337;65550;-67
2021/12/08 09:21:57;;;;;;;31.00;13.40;;;;;;;-8.34;90.40;99785.50;98964;1337;1005187;-70
2021/12/08 09:25:18;;;;;;;33.20;13.70;;;;;;;-8.34;90.23;99786.37;100037;1343;60387;-67
2021/12/08 09:28:21;;;;;;;34.10;14.70;;;;;;;-8.43;89.81;99787.80;99396;1336;1003443;-69
2021/12/08 09:31:25;;;;;;;32.80;15.30;;;;;;;-8.47;90.04;99786.11;99658;1340;73068;-70
2021/12/08 09:34:23;;;;;;;25.70;11.40;;;;;;;-8.46;90.15;99786.63;99430;1339;1003884;-70
2021/12/08 09:37:19;;;;;;;33.20;13.50;;;;;;;-8.55;89.47;99780.13;100309;1337;75241;-69
2021/12/08 09:40:15;;;;;;;33.10;13.70;;;;;;;-8.55;90.03;99786.66;100027;1342;59723;-69
2021/12/08 09:43:22;;;;;;;34.00;14.30;;;;;;;-8.51;90.37;99787.00;100097;1339;60722;-69
2021/12/08 09:46:33;;;;;;;34.10;14.40;;;;;;;-8.59;89.45;99773.61;100183;1336;74428;-69
2021/12/08 09:49:26;;;;;;;28.40;12.60;;;;;;;-8.61;90.02;99771.38;99792;1340;69008;-67
2021/12/08 09:52:17;;;;;;;34.50;14.60;;;;;;;-8.56;90.05;99765.34;99679;1340;73762;-71
2021/12/08 09:55:09;;;;;;;36.40;15.40;;;;;;;-8.50;90.22;99771.33;99212;1337;1003711;-68
2021/12/08 09:57:57;;;;;;;39.60;14.10;;;;;;;-8.43;89.78;99764.90;100181;1336;60688;-69
2021/12/08 10:00:50;;;;;;;32.50;13.80;;;;;;;-8.31;90.46;99763.10;100098;1340;75001;-70
2021/12/08 10:03:39;;;;;;;28.50;11.20;;;;;;;-8.17;90.02;99759.42;99991;1340;67552;-69
2021/12/08 10:06:28;;;;;;;38.70;15.50;;;;;;;-8.13;88.59;99760.59;100150;1337;70022;-68
2021/12/08 10:09:19;;;;;;;33.70;13.90;;;;;;;-8.14;88.14;99756.64;100302;1336;59739;-67
2021/12/08 10:12:08;;;;;;;41.20;14.60;;;;;;;-8.16;88.19;99759.92;100080;1337;62225;-69
2021/12/08 10:14:57;;;;;;;39.30;15.90;;;;;;;-8.19;87.61;99755.81;99861;1343;72101;-67
2021/12/08 10:17:47;;;;;;;38.20;15.20;;;;;;;-8.22;87.47;99759.79;99714;1342;67030;-71
2021/12/08 10:20:47;;;;;;;40.20;14.70;;;;;;;-8.25;87.41;99756.36;100032;1342;72427;-69
2021/12/08 10:23:42;;;;;;;48.90;17.60;;;;;;;-8.28;87.39;99757.76;99914;1339;59815;-65
2021/12/08 10:26:33;;;;;;;43.90;16.20;;;;;;;-8.36;87.39;99755.58;100008;1337;59598;-67
2021/12/08 10:29:31;;;;;;;34.20;13.60;;;;;;;-8.36;87.29;99753.16;99180;1336;1003451;-66
2021/12/08 10:32:19;;;;;;;43.10;15.40;;;;;;;-8.32;87.78;99746.95;99738;1336;68034;-68
2021/12/08 10:36:02;;;;;;;42.00;17.20;;;;;;;-8.30;87.13;99746.05;99649;1339;71862;-68
2021/12/08 10:38:51;;;;;;;38.60;15.10;;;;;;;-8.40;86.62;99736.83;99834;1337;59749;-68
2021/12/08 10:42:07;;;;;;;37.30;15.60;;;;;;;-8.53;86.59;99739.52;99907;1336;60259;-68
2021/12/08 10:45:10;;;;;;;45.70;19.90;;;;;;;-8.62;86.75;99739.90;98963;1340;1003183;-66
2021/12/08 10:48:00;;;;;;;46.30;17.30;;;;;;;-8.68;87.30;99738.89;99549;1339;69661;-68
2021/12/08 10:54:30;;;;;;;47.40;20.00;;;;;;;-8.71;87.79;99741.15;100013;1339;59806;-68
2021/12/08 10:57:36;;;;;;;33.70;12.50;;;;;;;-8.80;87.64;99735.00;100092;1340;59759;-67
2021/12/08 11:00:32;;;;;;;34.50;13.40;;;;;;;-8.83;87.86;99732.77;100156;1340;73651;-68
2021/12/08 11:03:28;;;;;;;42.90;16.30;;;;;;;-8.85;88.08;99730.02;99218;1336;1003648;-68
2021/12/08 11:06:20;;;;;;;45.50;17.60;;;;;;;-8.88;88.28;99725.91;99720;1340;73368;-69
2021/12/08 11:09:19;;;;;;;50.00;18.90;;;;;;;-8.90;87.86;99725.40;99834;1337;59818;-68
2021/12/08 11:12:09;;;;;;;47.00;16.00;;;;;;;-8.90;88.18;99723.16;99906;1340;60780;-69
2021/12/08 11:14:59;;;;;;;43.90;16.20;;;;;;;-8.90;88.18;99715.94;99877;1337;72223;-66
2021/12/08 11:17:47;;;;;;;47.60;19.00;;;;;;;-8.95;88.04;99720.77;98672;1335;1003770;-68
2021/12/08 11:20:58;;;;;;;35.90;13.70;;;;;;;-9.01;87.81;99713.92;98340;1336;1004075;-67
2021/12/08 11:23:50;;;;;;;36.30;13.80;;;;;;;-9.04;88.27;99716.87;99974;1340;60292;-69
2021/12/08 11:26:47;;;;;;;46.00;17.30;;;;;;;-9.01;88.34;99722.00;100166;1336;60846;-68
2021/12/08 11:29:42;;;;;;;41.40;16.90;;;;;;;-8.98;88.28;99721.13;100200;1343;73762;-67
2021/12/08 11:32:32;;;;;;;38.90;15.40;;;;;;;-8.99;88.23;99720.61;100085;1339;67966;-70
2021/12/08 11:35:22;;;;;;;46.50;17.40;;;;;;;-8.97;88.21;99715.27;100014;1342;73669;-68
2021/12/08 11:38:13;;;;;;;40.30;16.20;;;;;;;-8.87;88.70;99714.73;99844;1339;60289;-66
2021/12/08 11:41:09;;;;;;;42.80;15.40;;;;;;;-8.78;88.07;99715.38;99151;1337;1003174;-66
2021/12/08 11:43:58;;;;;;;41.40;15.50;;;;;;;-8.71;87.95;99714.66;99793;1343;74148;-65
2021/12/08 11:46:54;;;;;;;38.80;15.30;;;;;;;-8.70;87.44;99710.35;99749;1343;69548;-70
2021/12/08 11:49:49;;;;;;;42.90;17.60;;;;;;;-8.70;87.25;99708.63;100076;1343;73245;-65
2021/12/08 11:52:40;;;;;;;38.60;15.60;;;;;;;-8.72;86.47;99712.94;100010;1339;59809;-64
2021/12/08 11:55:29;;;;;;;30.80;12.20;;;;;;;-8.80;85.78;99716.42;99824;1339;59768;-67
2021/12/08 11:58:18;;;;;;;37.90;15.40;;;;;;;-8.88;86.00;99710.61;99946;1342;71126;-67
2021/12/08 12:01:07;;;;;;;41.60;17.30;;;;;;;-8.91;86.15;99707.35;99877;1342;68582;-65
2021/12/08 12:03:55;;;;;;;33.70;13.40;;;;;;;-8.96;86.72;99706.67;99798;1336;73278;-67
2021/12/08 12:06:46;;;;;;;36.90;15.00;;;;;;;-8.99;86.92;99707.90;99701;1339;59937;-66
2021/12/08 12:09:34;;;;;;;40.00;15.60;;;;;;;-9.04;86.80;99705.35;99362;1340;1003247;-67
2021/12/08 12:12:23;;;;;;;38.70;16.50;;;;;;;-9.10;86.73;99705.02;99801;1339;73957;-66
2021/12/08 12:15:17;;;;;;;40.80;17.30;;;;;;;-9.18;87.29;99711.40;99150;1341;1003104;-71
2021/12/08 12:18:08;;;;;;;40.80;16.10;;;;;;;-9.21;87.64;99712.95;99665;1346;72078;-66
2021/12/08 12:21:24;;;;;;;41.00;16.80;;;;;;;-9.21;87.55;99722.41;99633;1343;59943;-70
2021/12/08 12:24:34;;;;;;;43.70;17.20;;;;;;;-9.29;87.56;99718.48;99476;1348;59881;-67
2021/12/08 12:27:54;;;;;;;28.50;10.50;;;;;;;-9.29;87.72;99706.10;98736;1342;1003330;-65
2021/12/08 12:31:17;;;;;;;40.90;18.70;;;;;;;-9.26;87.81;99703.34;99664;1346;70112;-68
2021/12/08 12:34:24;;;;;;;42.10;16.80;;;;;;;-9.20;87.94;99710.89;99608;1342;71517;-68
2021/12/08 12:37:17;;;;;;;39.10;15.90;;;;;;;-9.15;87.37;99721.19;99563;1345;60789;-68
2021/12/08 12:40:16;;;;;;;44.50;17.60;;;;;;;-9.13;87.52;99718.79;99700;1342;61211;-67
2021/12/08 12:43:06;;;;;;;40.70;16.90;;;;;;;-9.11;86.93;99709.14;99749;1342;75156;-67
2021/12/08 12:46:07;;;;;;;41.90;15.90;;;;;;;-9.09;87.35;99707.94;99889;1339;66649;-71
2021/12/08 12:49:21;;;;;;;44.20;18.90;;;;;;;-9.07;87.15;99708.61;99910;1339;72344;-67
2021/12/08 12:52:12;;;;;;;40.50;15.90;;;;;;;-9.07;86.96;99706.89;99518;1342;59788;-67
2021/12/08 12:55:19;;;;;;;27.00;11.30;;;;;;;-9.03;87.74;99712.89;100071;1339;59726;-68
2021/12/08 12:58:10;;;;;;;45.10;18.40;;;;;;;-9.01;87.54;99714.77;99773;1339;73316;-66
2021/12/08 13:01:09;;;;;;;47.00;16.90;;;;;;;-9.05;87.48;99722.38;99502;1339;1003629;-67
2021/12/08 13:04:08;;;;;;;44.20;17.20;;;;;;;-9.06;87.57;99726.48;99858;1339;72580;-69
2021/12/08 13:07:03;;;;;;;42.40;17.50;;;;;;;-9.01;88.07;99737.30;99828;1342;62076;-67
2021/12/08 13:10:36;;;;;;;38.50;16.00;;;;;;;-9.04;88.26;99744.71;100212;1339;60403;-66
2021/12/08 13:13:25;;;;;;;28.10;11.20;;;;;;;-9.12;87.98;99750.73;99946;1345;73642;-65
2021/12/08 13:16:33;;;;;;;39.70;16.40;;;;;;;-9.11;88.51;99758.30;99293;1345;67150;-68
2021/12/08 13:19:38;;;;;;;40.60;16.90;;;;;;;-9.12;88.30;99766.23;99671;1345;72758;-67
2021/12/08 13:22:48;;;;;;;36.30;15.90;;;;;;;-9.11;88.80;99757.44;98941;1345;1002595;-64
2021/12/08 13:34:23;;;;;;;42.30;17.90;;;;;;;-8.89;89.21;99748.27;99134;1345;169192;-66
2021/12/08 13:37:25;;;;;;;40.70;16.70;;;;;;;-8.88;88.73;99751.36;99381;1342;60181;-66
2021/12/08 13:40:15;;;;;;;41.60;17.40;;;;;;;-8.91;88.97;99757.39;99542;1348;59763;-67
2021/12/08 13:43:11;;;;;;;49.00;20.90;;;;;;;-8.88;89.05;99763.91;99647;1345;72971;-67
2021/12/08 13:46:00;;;;;;;30.50;13.00;;;;;;;-8.89;88.92;99770.10;99493;1345;68727;-66
2021/12/08 13:49:12;;;;;;;40.20;16.50;;;;;;;-8.91;88.82;99767.37;99149;1348;73532;-66
2021/12/08 13:52:09;;;;;;;39.70;16.80;;;;;;;-8.89;89.35;99765.12;99995;1338;61651;-67
2021/12/08 13:55:21;;;;;;;39.50;18.30;;;;;;;-8.87;89.18;99767.70;99811;1340;61958;-70
2021/12/08 13:58:20;;;;;;;38.50;16.80;;;;;;;-8.86;89.47;99771.48;100202;1336;74508;-66
2021/12/08 14:01:16;;;;;;;38.00;15.60;;;;;;;-8.86;89.01;99765.29;99865;1340;68543;-66
2021/12/08 14:04:15;;;;;;;33.60;15.10;;;;;;;-8.85;88.94;99750.49;99286;1336;1003678;-66
2021/12/08 14:07:03;;;;;;;33.00;14.90;;;;;;;-8.85;88.82;99741.20;98924;1339;1015549;-66
2021/12/08 14:09:58;;;;;;;36.70;16.00;;;;;;;-8.95;89.12;99747.60;99830;1339;60322;-69